Time;durP1;ratioP1;P1;durP2;ratioP2;P2;SDS_P1;SDS_P2;PMS_P1;PMS_P2;Temp;Humidity;BMP_temperature;BMP_pressure;BME280_temperature;BME280_humidity;BME280_pressure;Samples;Min_cycle;Max_cycle;Signal;HPM_P1;HPM_P2
2023/04/05 00:01:36;;;;;;;1999.90;999.90;;;4.40;99.90;;;;;;5051999;28;20024;-69
2023/04/05 00:04:02;;;;;;;1999.90;999.90;;;4.40;99.90;;;;;;5033354;28;20083;-70
2023/04/05 00:06:29;;;;;;;1999.90;999.90;;;4.30;99.90;;;;;;5033878;28;20017;-75
2023/04/05 00:08:55;;;;;;;1999.90;999.90;;;4.30;99.90;;;;;;5053466;28;20476;-75
2023/04/05 00:11:25;;;;;;;1999.90;999.90;;;4.30;99.90;;;;;;5053873;28;20100;-75
2023/04/05 00:13:50;;;;;;;1999.90;999.90;;;4.20;99.90;;;;;;5053623;28;20064;-70
2023/04/05 00:16:17;;;;;;;1999.90;999.90;;;4.20;99.90;;;;;;5053838;28;20063;-70
2023/04/05 00:18:50;;;;;;;1999.90;999.90;;;4.20;99.90;;;;;;5033740;28;20496;-75
2023/04/05 00:21:17;;;;;;;1999.90;999.90;;;4.20;99.90;;;;;;5035092;28;20055;-75
2023/04/05 00:23:43;;;;;;;1999.90;999.90;;;4.20;99.90;;;;;;5053366;28;20033;-75
2023/04/05 00:26:10;;;;;;;1999.90;999.90;;;4.10;99.90;;;;;;5053442;28;20025;-70
2023/04/05 00:28:36;;;;;;;1999.90;999.90;;;4.00;99.90;;;;;;5053650;28;20059;-70
2023/04/05 00:31:03;;;;;;;1999.90;999.90;;;4.00;99.90;;;;;;5053579;28;20025;-75
2023/04/05 00:33:29;;;;;;;1999.90;999.90;;;3.90;99.90;;;;;;5053525;28;20021;-75
2023/04/05 00:35:55;;;;;;;1999.90;999.90;;;3.80;99.90;;;;;;5053403;28;20036;-75
2023/04/05 00:38:20;;;;;;;1999.90;999.90;;;3.80;99.90;;;;;;5053333;28;20120;-70
2023/04/05 00:40:46;;;;;;;1999.90;999.90;;;3.80;99.90;;;;;;5053401;28;20476;-69
2023/04/05 00:43:12;;;;;;;1999.90;999.90;;;3.80;99.90;;;;;;5053122;28;20079;-75
2023/04/05 00:45:37;;;;;;;1999.90;999.90;;;3.90;99.90;;;;;;5053517;28;20024;-75
2023/04/05 00:48:04;;;;;;;1999.90;999.90;;;4.00;99.90;;;;;;5052834;28;20021;-69
2023/04/05 00:50:30;;;;;;;1999.90;999.90;;;3.90;99.90;;;;;;5053045;28;20404;-75
2023/04/05 00:52:59;;;;;;;1999.90;999.90;;;3.90;99.90;;;;;;5053247;28;20025;-75
2023/04/05 00:55:26;;;;;;;1999.90;999.90;;;3.90;99.90;;;;;;5053084;28;20043;-69
2023/04/05 00:57:54;;;;;;;1999.90;999.90;;;3.80;99.90;;;;;;5053034;28;20025;-75
2023/04/05 01:00:21;;;;;;;1999.90;999.90;;;3.70;99.90;;;;;;5053044;28;20507;-75
2023/04/05 01:03:01;;;;;;;1999.90;999.90;;;3.70;99.90;;;;;;5040879;28;20021;-75
2023/04/05 01:05:35;;;;;;;1999.90;999.90;;;3.60;99.90;;;;;;5032790;28;20021;-70
2023/04/05 01:08:07;;;;;;;1999.90;999.90;;;3.60;99.90;;;;;;5044921;28;20514;-69
2023/04/05 01:10:36;;;;;;;1999.90;999.90;;;3.50;99.90;;;;;;5052775;28;20025;-75
2023/04/05 01:13:04;;;;;;;1999.90;999.90;;;3.40;99.90;;;;;;5052888;28;20021;-75
2023/04/05 01:15:31;;;;;;;1999.90;999.90;;;3.40;99.90;;;;;;5052880;28;20036;-75
2023/04/05 01:18:00;;;;;;;1999.90;999.90;;;3.40;99.90;;;;;;5052018;28;20028;-70
2023/04/05 01:20:31;;;;;;;1999.90;999.90;;;3.40;99.90;;;;;;5052730;28;20127;-69
2023/04/05 01:23:21;;;;;;;1999.90;999.90;;;3.30;99.90;;;;;;5052567;28;20020;-75
2023/04/05 01:26:22;;;;;;;1999.90;999.90;;;3.30;99.90;;;;;;5052634;28;20108;-75
2023/04/05 01:29:22;;;;;;;1999.90;999.90;;;3.30;99.90;;;;;;5052319;28;20083;-69
2023/04/05 01:32:02;;;;;;;1999.90;999.90;;;3.20;99.90;;;;;;5052814;28;20092;-69
2023/04/05 01:34:41;;;;;;;1999.90;999.90;;;3.20;99.90;;;;;;5052531;28;20086;-70
2023/04/05 01:37:11;;;;;;;1999.90;999.90;;;3.20;99.90;;;;;;5052752;28;20021;-70
2023/04/05 01:39:37;;;;;;;1999.90;999.90;;;3.20;99.90;;;;;;5052520;28;20100;-75
2023/04/05 01:42:03;;;;;;;1999.90;999.90;;;3.10;99.90;;;;;;5052311;28;20033;-75
2023/04/05 01:44:29;;;;;;;1999.90;999.90;;;3.10;99.90;;;;;;5052542;28;20096;-70
2023/04/05 01:46:55;;;;;;;1999.90;999.90;;;3.10;99.90;;;;;;5052726;28;20096;-69
2023/04/05 01:49:21;;;;;;;1999.90;999.90;;;3.00;99.90;;;;;;5051950;28;20393;-70
2023/04/05 01:51:47;;;;;;;1999.90;999.90;;;3.10;99.90;;;;;;5052359;28;20502;-70
2023/04/05 01:54:12;;;;;;;1999.90;999.90;;;3.10;99.90;;;;;;5052379;28;20096;-75
2023/04/05 01:56:38;;;;;;;1999.90;999.90;;;3.00;99.90;;;;;;5052492;28;20082;-75
2023/04/05 01:59:04;;;;;;;1999.90;999.90;;;3.00;99.90;;;;;;5052381;28;20018;-70
2023/04/05 02:01:29;;;;;;;1999.90;999.90;;;3.00;99.90;;;;;;5051474;28;20056;-75
2023/04/05 02:03:55;;;;;;;1999.90;999.90;;;3.00;99.90;;;;;;5031424;28;20572;-75
2023/04/05 02:06:21;;;;;;;1999.90;999.90;;;2.90;99.90;;;;;;5032665;28;20040;-75
2023/04/05 02:08:47;;;;;;;1999.90;999.90;;;2.90;99.90;;;;;;5050759;28;20040;-69
2023/04/05 02:11:13;;;;;;;1999.90;999.90;;;2.80;99.90;;;;;;5052449;28;20488;-70
2023/04/05 02:13:38;;;;;;;1999.90;999.90;;;2.80;99.90;;;;;;5050972;28;20021;-70
2023/04/05 02:16:04;;;;;;;1999.90;999.90;;;2.80;99.90;;;;;;5053676;28;20051;-75
2023/04/05 02:18:30;;;;;;;1999.90;999.90;;;2.80;99.90;;;;;;5055686;28;20071;-75
2023/04/05 02:21:07;;;;;;;1999.90;999.90;;;2.70;99.90;;;;;;5055426;28;20029;-70
2023/04/05 02:23:33;;;;;;;1999.90;999.90;;;2.70;99.90;;;;;;5035787;28;20053;-70
2023/04/05 02:26:00;;;;;;;1999.90;999.90;;;2.70;99.90;;;;;;5043136;28;20476;-75
2023/04/05 02:28:26;;;;;;;1999.90;999.90;;;2.70;99.90;;;;;;5055798;28;20044;-75
2023/04/05 02:30:51;;;;;;;1999.90;999.90;;;2.70;99.90;;;;;;5056068;28;20025;-75
2023/04/05 02:33:17;;;;;;;1999.90;999.90;;;2.70;99.90;;;;;;5055252;28;20422;-70
2023/04/05 02:35:43;;;;;;;1999.90;999.90;;;2.80;99.90;;;;;;5054209;28;20086;-70
2023/04/05 02:38:09;;;;;;;1999.90;999.90;;;2.80;99.90;;;;;;5055842;28;20059;-70
2023/04/05 02:40:34;;;;;;;1999.90;999.90;;;2.80;99.90;;;;;;5055652;28;20549;-75
2023/04/05 02:43:01;;;;;;;1999.90;999.90;;;2.70;99.90;;;;;;5055272;28;20021;-70
2023/04/05 02:45:26;;;;;;;1999.90;999.90;;;2.70;99.90;;;;;;5055478;28;20016;-76
2023/04/05 02:47:53;;;;;;;1999.90;999.90;;;2.70;99.90;;;;;;5055565;28;20086;-70
2023/04/05 02:50:19;;;;;;;1999.90;999.90;;;2.70;99.90;;;;;;5055443;28;20098;-75
2023/04/05 02:52:46;;;;;;;1999.90;999.90;;;2.70;99.90;;;;;;5055404;28;20031;-70
2023/04/05 02:55:12;;;;;;;1999.90;999.90;;;2.70;99.90;;;;;;5055688;28;20032;-75
2023/04/05 02:57:38;;;;;;;1999.90;999.90;;;2.70;99.90;;;;;;5055243;28;20032;-69
2023/04/05 03:00:05;;;;;;;1999.90;999.90;;;2.80;99.90;;;;;;5055274;28;20025;-75
2023/04/05 03:02:31;;;;;;;1999.90;999.90;;;2.80;99.90;;;;;;5045559;28;20026;-75
2023/04/05 03:04:56;;;;;;;1999.90;999.90;;;2.80;99.90;;;;;;5034534;28;20503;-69
2023/04/05 03:07:25;;;;;;;1999.90;999.90;;;2.70;99.90;;;;;;5042077;28;20021;-69
2023/04/05 03:09:51;;;;;;;1999.90;999.90;;;2.70;99.90;;;;;;5055024;28;20021;-75
2023/04/05 03:12:16;;;;;;;1999.90;999.90;;;2.60;99.90;;;;;;5055077;28;20078;-70
2023/04/05 03:14:42;;;;;;;1999.90;999.90;;;2.50;99.90;;;;;;5054928;28;20484;-70
2023/04/05 03:17:08;;;;;;;1999.90;999.90;;;2.50;99.90;;;;;;5055004;28;20044;-75
2023/04/05 03:19:34;;;;;;;1999.90;999.90;;;2.50;99.90;;;;;;5054882;28;20029;-70
2023/04/05 03:22:00;;;;;;;1999.90;999.90;;;2.50;99.90;;;;;;5054575;28;20021;-69
2023/04/05 03:24:26;;;;;;;1999.90;999.90;;;2.40;99.90;;;;;;5054770;28;20025;-75
2023/04/05 03:26:51;;;;;;;1999.90;999.90;;;2.50;99.90;;;;;;5053239;28;20095;-73
2023/04/05 03:29:17;;;;;;;1999.90;999.90;;;2.50;99.90;;;;;;5050500;28;20029;-69
2023/04/05 03:31:44;;;;;;;1999.90;999.90;;;2.60;99.90;;;;;;5054972;28;20408;-70
2023/04/05 03:34:10;;;;;;;1999.90;999.90;;;2.60;99.90;;;;;;5055007;28;20476;-70
2023/04/05 03:36:41;;;;;;;1999.90;999.90;;;2.60;99.90;;;;;;5054598;28;20025;-75
2023/04/05 03:39:12;;;;;;;1999.90;999.90;;;2.60;99.90;;;;;;5054519;28;20075;-70
2023/04/05 03:41:39;;;;;;;1999.90;999.90;;;2.60;99.90;;;;;;5054193;28;20511;-69
2023/04/05 03:44:05;;;;;;;1999.90;999.90;;;2.50;99.90;;;;;;5054677;28;20025;-70
2023/04/05 03:46:31;;;;;;;1999.90;999.90;;;2.50;99.90;;;;;;5054312;28;20033;-75
2023/04/05 03:48:57;;;;;;;1999.90;999.90;;;2.40;99.90;;;;;;5054222;28;20182;-69
2023/04/05 03:51:23;;;;;;;1999.90;999.90;;;2.40;99.90;;;;;;5054208;28;20026;-69
2023/04/05 03:53:50;;;;;;;1999.90;999.90;;;2.40;99.90;;;;;;5054202;28;20416;-70
2023/04/05 03:56:16;;;;;;;1999.90;999.90;;;2.30;99.90;;;;;;5054342;28;20048;-69
2023/04/05 03:58:42;;;;;;;1999.90;999.90;;;2.30;99.90;;;;;;5054107;28;20524;-70
2023/04/05 04:01:08;;;;;;;1999.90;999.90;;;2.30;99.90;;;;;;5054247;28;20430;-69
2023/04/05 04:03:36;;;;;;;1999.90;999.90;;;2.20;99.90;;;;;;5035361;28;20033;-70
2023/04/05 04:06:05;;;;;;;1999.90;999.90;;;2.20;99.90;;;;;;5033332;28;20028;-75
2023/04/05 04:08:31;;;;;;;1999.90;999.90;;;2.20;99.90;;;;;;5050160;28;20029;-69
2023/04/05 04:10:57;;;;;;;1999.90;999.90;;;2.10;99.90;;;;;;5053984;28;20020;-70
2023/04/05 04:13:23;;;;;;;1999.90;999.90;;;2.10;99.90;;;;;;5053995;28;20120;-69
2023/04/05 04:15:49;;;;;;;1999.90;999.90;;;2.10;99.90;;;;;;5053738;28;20033;-69
2023/04/05 04:18:15;;;;;;;1999.90;999.90;;;2.00;99.90;;;;;;5053280;28;20434;-69
2023/04/05 04:20:40;;;;;;;1999.90;999.90;;;2.00;99.90;;;;;;5053764;28;20025;-75
2023/04/05 04:23:09;;;;;;;1999.90;999.90;;;2.00;99.90;;;;;;5053310;28;20029;-75
2023/04/05 04:25:37;;;;;;;1999.90;999.90;;;2.00;99.90;;;;;;5053766;28;20021;-70
2023/04/05 04:28:08;;;;;;;1999.90;999.90;;;1.90;99.90;;;;;;5053894;28;20021;-70
2023/04/05 04:30:34;;;;;;;1999.90;999.90;;;1.90;99.90;;;;;;5053850;28;20044;-75
2023/04/05 04:33:03;;;;;;;1999.90;999.90;;;1.90;99.90;;;;;;5067864;28;20025;-75
2023/04/05 04:35:30;;;;;;;1999.90;999.90;;;1.90;99.90;;;;;;5073596;28;20024;-70
2023/04/05 04:37:58;;;;;;;1999.90;999.90;;;1.90;99.90;;;;;;5073003;28;20013;-75
2023/04/05 04:40:45;;;;;;;1999.90;999.90;;;1.90;99.90;;;;;;5073369;28;20149;-75
2023/04/05 04:43:13;;;;;;;1999.90;999.90;;;1.90;99.90;;;;;;5058462;28;20506;-70
2023/04/05 04:45:39;;;;;;;1999.90;999.90;;;2.00;99.90;;;;;;5051868;28;20424;-75
2023/04/05 04:48:05;;;;;;;1999.90;999.90;;;2.00;99.90;;;;;;5053269;28;20074;-69
2023/04/05 04:50:31;;;;;;;1999.90;999.90;;;2.00;99.90;;;;;;5053142;28;20029;-69
2023/04/05 04:53:03;;;;;;;1999.90;999.90;;;2.00;99.90;;;;;;5053216;28;20032;-70
2023/04/05 04:55:29;;;;;;;1999.90;999.90;;;2.00;99.90;;;;;;5050366;28;20037;-70
2023/04/05 04:57:55;;;;;;;1999.90;999.90;;;2.00;99.90;;;;;;5052887;28;20025;-70
2023/04/05 05:00:22;;;;;;;1999.90;999.90;;;2.00;99.90;;;;;;5052106;28;20041;-70
2023/04/05 05:02:49;;;;;;;1999.90;999.90;;;2.00;99.90;;;;;;5040833;28;20032;-70
2023/04/05 05:05:15;;;;;;;1999.90;999.90;;;2.00;99.90;;;;;;5032796;28;20469;-69
2023/04/05 05:07:41;;;;;;;1999.90;999.90;;;2.00;99.90;;;;;;5041547;28;20071;-69
2023/04/05 05:10:08;;;;;;;1999.90;999.90;;;1.90;99.90;;;;;;5052563;28;20032;-69
2023/04/05 05:12:34;;;;;;;1999.90;999.90;;;1.90;99.90;;;;;;5052627;28;20090;-70
2023/04/05 05:14:59;;;;;;;1999.90;999.90;;;1.90;99.90;;;;;;5052884;28;20488;-75
2023/04/05 05:17:25;;;;;;;1999.90;999.90;;;1.90;99.90;;;;;;5052566;28;20103;-69
2023/04/05 05:19:51;;;;;;;1999.90;999.90;;;1.90;99.90;;;;;;5052548;28;20036;-75
2023/04/05 05:22:17;;;;;;;1999.90;999.90;;;1.90;99.90;;;;;;5051281;28;20021;-75
2023/04/05 05:24:44;;;;;;;1999.90;999.90;;;1.90;99.90;;;;;;5052608;28;20017;-70
2023/04/05 05:27:09;;;;;;;1999.90;999.90;;;1.90;99.90;;;;;;5052636;28;20029;-70
2023/04/05 05:29:35;;;;;;;1999.90;999.90;;;1.80;99.90;;;;;;5052566;28;20021;-75
2023/04/05 05:32:01;;;;;;;1999.90;999.90;;;1.80;99.90;;;;;;5052431;28;20059;-75
2023/04/05 05:34:27;;;;;;;1999.90;999.90;;;1.80;99.90;;;;;;5051227;28;20048;-75
2023/04/05 05:36:54;;;;;;;1999.90;999.90;;;1.80;99.90;;;;;;5051007;28;20404;-75
2023/04/05 05:39:20;;;;;;;1999.90;999.90;;;1.70;99.90;;;;;;5055157;28;20510;-70
2023/04/05 05:41:46;;;;;;;1999.90;999.90;;;1.70;99.90;;;;;;5037104;28;20068;-70
2023/04/05 05:44:12;;;;;;;1999.90;999.90;;;1.70;99.90;;;;;;5039840;28;20029;-75
2023/04/05 05:46:38;;;;;;;1999.90;999.90;;;1.60;99.90;;;;;;5051733;28;20025;-75
2023/04/05 05:49:04;;;;;;;1999.90;999.90;;;1.60;99.90;;;;;;5047394;28;20045;-70
2023/04/05 05:51:31;;;;;;;1999.90;999.90;;;1.60;99.90;;;;;;5041030;28;20020;-69
2023/04/05 05:53:56;;;;;;;1999.90;999.90;;;1.60;99.90;;;;;;5071004;28;20025;-69
2023/04/05 05:56:22;;;;;;;1999.90;999.90;;;1.60;99.90;;;;;;5055175;28;20033;-76
2023/04/05 05:58:48;;;;;;;1999.90;999.90;;;1.60;99.90;;;;;;5055478;28;20060;-71
2023/04/05 06:01:13;;;;;;;1999.90;999.90;;;1.70;99.90;;;;;;5056471;28;20044;-72
2023/04/05 06:03:39;;;;;;;1999.90;999.90;;;1.80;99.90;;;;;;5049915;28;20037;-71
2023/04/05 06:06:07;;;;;;;1999.90;999.90;;;1.80;99.90;;;;;;5067585;28;20455;-71
2023/04/05 06:08:33;;;;;;;1999.90;999.90;;;1.80;99.90;;;;;;5056305;28;20052;-70
2023/04/05 06:10:59;;;;;;;1999.90;999.90;;;1.90;99.90;;;;;;5053735;28;20029;-76
2023/04/05 06:13:24;;;;;;;1999.90;999.90;;;2.00;99.90;;;;;;5049700;28;20032;-70
2023/04/05 06:15:50;;;;;;;1999.90;999.90;;;2.00;99.90;;;;;;5050393;28;20546;-69
2023/04/05 06:18:16;;;;;;;1999.90;999.90;;;2.10;99.90;;;;;;5063346;28;20509;-69
2023/04/05 06:20:43;;;;;;;1999.90;999.90;;;2.10;99.90;;;;;;5069391;28;20032;-70
2023/04/05 06:23:12;;;;;;;1999.90;999.90;;;2.10;99.90;;;;;;5046558;28;20563;-75
2023/04/05 06:25:38;;;;;;;1999.90;999.90;;;2.20;99.90;;;;;;5048536;28;20037;-75
2023/04/05 06:28:04;;;;;;;1999.90;999.90;;;2.30;99.90;;;;;;5061915;28;20025;-75
2023/04/05 06:30:31;;;;;;;1999.90;999.90;;;2.40;99.90;;;;;;5052334;28;20061;-70
2023/04/05 06:32:57;;;;;;;1999.90;999.90;;;2.50;99.90;;;;;;5051041;28;20039;-70
2023/04/05 06:35:23;;;;;;;1999.90;999.90;;;2.60;99.90;;;;;;5045147;28;20029;-73
2023/04/05 06:37:49;;;;;;;1999.90;999.90;;;2.70;99.90;;;;;;5044196;28;20115;-74
2023/04/05 06:40:16;;;;;;;1999.90;999.90;;;2.70;99.90;;;;;;5038150;28;20029;-74
2023/04/05 06:42:42;;;;;;;1999.90;999.90;;;2.90;99.90;;;;;;5045983;28;20025;-70
2023/04/05 06:45:08;;;;;;;1999.90;999.90;;;3.00;99.90;;;;;;5050691;28;20021;-70
2023/04/05 06:47:34;;;;;;;1999.90;999.90;;;3.00;99.90;;;;;;5050247;28;20436;-75
2023/04/05 06:50:01;;;;;;;1999.90;999.90;;;3.20;99.90;;;;;;5050155;28;20077;-75
2023/04/05 06:52:27;;;;;;;1999.90;999.90;;;3.30;99.90;;;;;;5049952;28;20035;-76
2023/04/05 06:54:53;;;;;;;1999.90;999.90;;;3.40;99.90;;;;;;5050139;28;20105;-70
2023/04/05 06:57:18;;;;;;;1999.90;999.90;;;3.50;99.90;;;;;;5050146;28;20048;-70
2023/04/05 06:59:44;;;;;;;1999.90;999.90;;;3.70;99.90;;;;;;5050573;28;20037;-69
2023/04/05 07:02:11;;;;;;;1999.90;999.90;;;3.70;99.90;;;;;;5043747;28;20577;-75
2023/04/05 07:04:37;;;;;;;1999.90;999.90;;;3.90;99.90;;;;;;5048850;28;20110;-70
2023/04/05 07:07:03;;;;;;;1999.90;999.90;;;4.10;99.90;;;;;;5046240;28;20067;-70
2023/04/05 07:09:31;;;;;;;1999.90;999.90;;;4.20;99.90;;;;;;5040445;28;20024;-70
2023/04/05 07:11:58;;;;;;;1999.90;999.90;;;4.40;99.90;;;;;;5042179;28;20120;-70
2023/04/05 07:14:24;;;;;;;1999.90;999.90;;;4.60;99.90;;;;;;5049739;28;20028;-69
2023/04/05 07:16:51;;;;;;;1999.90;999.90;;;4.70;99.90;;;;;;5049057;28;20037;-76
2023/04/05 07:19:17;;;;;;;1999.90;999.90;;;4.80;99.90;;;;;;5042056;28;20075;-75
2023/04/05 07:21:43;;;;;;;1999.90;999.90;;;5.10;99.90;;;;;;5049255;28;20035;-70
2023/04/05 07:24:09;;;;;;;1999.90;999.90;;;5.20;99.90;;;;;;5049486;28;20025;-70
2023/04/05 07:26:36;;;;;;;1999.90;999.90;;;5.30;99.90;;;;;;5052107;28;20128;-70
2023/04/05 07:29:05;;;;;;;1999.90;999.90;;;5.50;99.90;;;;;;5045000;28;20021;-70
2023/04/05 07:31:31;;;;;;;1999.90;999.90;;;5.60;99.90;;;;;;5048434;28;20111;-75
2023/04/05 07:33:59;;;;;;;1999.90;999.90;;;5.80;99.90;;;;;;5047677;28;20567;-70
2023/04/05 07:36:26;;;;;;;1999.90;999.90;;;6.00;99.90;;;;;;5048136;28;20057;-71
2023/04/05 07:38:53;;;;;;;1999.90;999.90;;;6.20;99.90;;;;;;5049340;28;20033;-72
2023/04/05 07:41:19;;;;;;;1999.90;999.90;;;6.40;99.90;;;;;;5047081;28;20041;-76
2023/04/05 07:43:45;;;;;;;1999.90;999.90;;;6.60;99.90;;;;;;5046870;28;20106;-75
2023/04/05 07:46:11;;;;;;;1999.90;999.90;;;6.90;99.90;;;;;;5047716;28;20021;-70
2023/04/05 07:48:37;;;;;;;1999.90;999.90;;;7.10;99.90;;;;;;5050390;28;20068;-70
2023/04/05 07:51:07;;;;;;;1999.90;999.90;;;7.50;99.90;;;;;;5044830;28;20024;-70
2023/04/05 07:53:36;;;;;;;1999.90;999.90;;;8.90;99.90;;;;;;5046303;28;20048;-76
2023/04/05 07:56:08;;;;;;;1999.90;999.90;;;12.10;99.90;;;;;;5046237;28;20064;-71
2023/04/05 07:58:34;;;;;;;1999.90;999.90;;;14.40;99.90;;;;;;5046921;28;20025;-71
2023/04/05 08:01:03;;;;;;;1999.90;999.90;;;15.70;99.90;;;;;;5040767;28;20268;-71
2023/04/05 08:03:31;;;;;;;1999.90;999.90;;;16.70;99.90;;;;;;5046198;28;20086;-71
2023/04/05 08:05:57;;;;;;;1999.90;999.90;;;17.10;98.20;;;;;;5045190;28;20119;-77
2023/04/05 08:08:25;;;;;;;1999.90;999.90;;;17.90;97.60;;;;;;5044660;28;20426;-74
2023/04/05 08:10:51;;;;;;;1999.90;999.90;;;18.50;95.40;;;;;;5045793;28;20035;-77
2023/04/05 08:13:17;;;;;;;1999.90;999.90;;;19.00;94.30;;;;;;5044927;28;20025;-72
2023/04/05 08:15:43;;;;;;;1999.90;999.90;;;19.20;94.30;;;;;;5042535;28;20029;-71
2023/04/05 08:18:08;;;;;;;1999.90;999.90;;;19.50;94.60;;;;;;5047263;28;20405;-72
2023/04/05 08:20:37;;;;;;;1999.90;999.90;;;20.20;94.60;;;;;;5043494;28;20024;-77
2023/04/05 08:23:04;;;;;;;1999.90;999.90;;;21.00;93.80;;;;;;5041764;28;20032;-77
2023/04/05 08:25:30;;;;;;;1999.90;999.90;;;21.00;93.20;;;;;;5055392;28;20056;-76
2023/04/05 08:27:55;;;;;;;1999.90;999.90;;;21.00;92.30;;;;;;5064711;28;20071;-72
2023/04/05 08:30:22;;;;;;;1999.90;999.90;;;21.40;93.20;;;;;;5062706;28;20635;-72
2023/04/05 08:32:48;;;;;;;1999.90;999.90;;;22.40;92.00;;;;;;5054658;28;20028;-77
2023/04/05 08:35:14;;;;;;;1999.90;999.90;;;22.40;92.20;;;;;;5050186;28;20025;-73
2023/04/05 08:37:40;;;;;;;1999.90;999.90;;;22.10;90.50;;;;;;5051660;28;20033;-77
2023/04/05 08:40:07;;;;;;;1999.90;999.90;;;22.20;91.40;;;;;;5048791;28;20039;-72
2023/04/05 08:42:41;;;;;;;1999.90;999.90;;;22.50;90.90;;;;;;5045391;28;20029;-71
2023/04/05 08:45:09;;;;;;;1999.90;999.90;;;22.60;90.60;;;;;;5048328;28;20025;-77
2023/04/05 08:47:37;;;;;;;1999.90;999.90;;;21.20;91.20;;;;;;5051078;28;20507;-77
2023/04/05 08:50:04;;;;;;;1999.90;999.90;;;20.80;91.80;;;;;;5048300;28;20041;-72
2023/04/05 08:52:36;;;;;;;1999.90;999.90;;;21.90;90.90;;;;;;5043340;28;20089;-73
2023/04/05 08:55:03;;;;;;;1999.90;999.90;;;22.50;89.40;;;;;;5046789;28;20108;-72
2023/04/05 08:57:31;;;;;;;1999.90;999.90;;;22.60;89.10;;;;;;5044628;28;20053;-78
2023/04/05 09:00:00;;;;;;;1999.90;999.90;;;22.80;90.40;;;;;;5043528;28;20041;-77
2023/04/05 09:02:27;;;;;;;1999.90;999.90;;;23.20;87.10;;;;;;5045499;28;20033;-77
2023/04/05 09:04:53;;;;;;;1999.90;999.90;;;22.90;87.60;;;;;;5047235;28;20032;-77
2023/04/05 09:07:19;;;;;;;1999.90;999.90;;;23.30;83.80;;;;;;5048026;28;20013;-73
2023/04/05 09:09:52;;;;;;;1999.90;999.90;;;23.10;86.60;;;;;;5044813;28;20400;-73
2023/04/05 09:12:23;;;;;;;1999.90;999.90;;;23.10;87.60;;;;;;5051587;28;20074;-77
2023/04/05 09:14:49;;;;;;;1999.90;999.90;;;23.30;83.10;;;;;;5047534;28;20021;-73
2023/04/05 09:17:18;;;;;;;1999.90;999.90;;;23.60;82.80;;;;;;5052849;28;20039;-73
2023/04/05 09:19:44;;;;;;;1999.90;999.90;;;23.80;82.70;;;;;;5051619;28;20021;-72
2023/04/05 09:22:10;;;;;;;1999.90;999.90;;;24.10;82.40;;;;;;5048231;28;20476;-73
2023/04/05 09:24:38;;;;;;;1999.90;999.90;;;24.00;84.40;;;;;;5046991;28;20023;-73
2023/04/05 09:27:21;;;;;;;1999.90;999.90;;;24.00;81.20;;;;;;5047813;28;20036;-72
2023/04/05 09:29:49;;;;;;;1999.90;999.90;;;24.30;79.30;;;;;;5047568;28;20091;-77
2023/04/05 09:32:22;;;;;;;1999.90;999.90;;;24.30;81.00;;;;;;5047623;28;20017;-73
2023/04/05 09:34:47;;;;;;;1999.90;999.90;;;24.00;80.20;;;;;;5047386;28;20021;-73
2023/04/05 09:37:15;;;;;;;1999.90;999.90;;;23.90;85.20;;;;;;5055714;28;20071;-73
2023/04/05 09:39:41;;;;;;;1999.90;999.90;;;23.30;80.90;;;;;;5046366;28;20095;-72
2023/04/05 09:42:10;;;;;;;1999.90;999.90;;;24.30;81.90;;;;;;5045203;28;20033;-73
2023/04/05 09:44:56;;;;;;;1999.90;999.90;;;24.10;79.20;;;;;;5047614;28;20492;-73
2023/04/05 09:47:24;;;;;;;1999.90;999.90;;;23.90;80.30;;;;;;5057061;28;20033;-73
2023/04/05 09:49:50;;;;;;;1999.90;999.90;;;23.20;81.10;;;;;;5066783;28;20082;-73
2023/04/05 09:52:27;;;;;;;1999.90;999.90;;;23.90;79.60;;;;;;5050908;28;20029;-77
2023/04/05 09:54:55;;;;;;;1999.90;999.90;;;24.20;79.80;;;;;;5043661;28;20052;-73
2023/04/05 09:57:26;;;;;;;1999.90;999.90;;;22.80;79.70;;;;;;5042517;28;20044;-73
2023/04/05 09:59:53;;;;;;;1999.90;999.90;;;22.50;81.90;;;;;;5038880;28;20022;-73
2023/04/05 10:02:20;;;;;;;1999.90;999.90;;;23.60;81.10;;;;;;5044879;28;20091;-73
2023/04/05 10:04:48;;;;;;;1999.90;999.90;;;23.30;79.40;;;;;;5034415;28;20025;-77
2023/04/05 10:07:15;;;;;;;1999.90;999.90;;;24.00;80.00;;;;;;5043462;28;20025;-77
2023/04/05 10:09:42;;;;;;;1999.90;999.90;;;23.20;79.60;;;;;;5040575;28;20388;-77
2023/04/05 10:12:09;;;;;;;1999.90;999.90;;;22.60;79.70;;;;;;5046019;28;20029;-73
2023/04/05 10:14:38;;;;;;;1999.90;999.90;;;22.20;83.10;;;;;;5044604;28;20025;-72
2023/04/05 10:17:12;;;;;;;1999.90;999.90;;;21.20;84.90;;;;;;5046010;28;20025;-73
2023/04/05 10:20:00;;;;;;;1999.90;999.90;;;20.20;83.80;;;;;;5061816;28;20583;-76
2023/04/05 10:22:34;;;;;;;1999.90;999.90;;;18.70;86.00;;;;;;5050000;28;20056;-77
2023/04/05 10:25:27;;;;;;;1999.90;999.90;;;18.50;90.60;;;;;;5050880;28;20383;-73
2023/04/05 10:27:55;;;;;;;1999.90;999.90;;;18.80;91.60;;;;;;5068294;28;20119;-74
2023/04/05 10:30:24;;;;;;;1999.90;999.90;;;18.70;90.70;;;;;;5035810;28;20060;-78
2023/04/05 10:33:02;;;;;;;1999.90;999.90;;;18.10;91.40;;;;;;5047673;28;20033;-74
2023/04/05 10:35:42;;;;;;;1999.90;999.90;;;17.60;92.30;;;;;;5058462;28;20047;-74
2023/04/05 10:38:17;;;;;;;1999.90;999.90;;;17.80;91.70;;;;;;5057462;28;20033;-74
2023/04/05 10:40:47;;;;;;;1999.90;999.90;;;17.30;92.10;;;;;;5046949;28;20119;-72
2023/04/05 10:43:20;;;;;;;1999.90;999.90;;;17.30;94.30;;;;;;5050391;28;20043;-78
2023/04/05 10:45:48;;;;;;;1999.90;999.90;;;17.20;93.30;;;;;;5052703;28;20032;-74
2023/04/05 10:48:50;;;;;;;1999.90;999.90;;;17.10;93.30;;;;;;5055984;28;20521;-78
2023/04/05 10:51:16;;;;;;;1999.90;999.90;;;17.60;95.60;;;;;;5052631;28;20098;-74
2023/04/05 10:53:42;;;;;;;1999.90;999.90;;;17.20;93.30;;;;;;5045426;28;20122;-78
2023/04/05 10:56:08;;;;;;;1999.90;999.90;;;16.80;92.70;;;;;;5053023;28;20020;-77
2023/04/05 10:58:38;;;;;;;1999.90;999.90;;;16.70;92.70;;;;;;5047348;28;20064;-77
2023/04/05 11:01:05;;;;;;;1999.90;999.90;;;17.00;92.70;;;;;;5056147;28;20021;-77
2023/04/05 11:03:50;;;;;;;1999.90;999.90;;;16.70;92.70;;;;;;5045179;28;20032;-73
2023/04/05 11:06:28;;;;;;;1999.90;999.90;;;16.40;93.80;;;;;;5047020;28;20044;-74
2023/04/05 11:09:17;;;;;;;1999.90;999.90;;;16.70;95.30;;;;;;5047222;28;20032;-78
2023/04/05 11:11:44;;;;;;;1999.90;999.90;;;16.70;93.50;;;;;;5038524;28;20064;-77
2023/04/05 11:14:27;;;;;;;1999.90;999.90;;;16.50;94.20;;;;;;5058525;28;20111;-74
2023/04/05 11:16:58;;;;;;;1999.90;999.90;;;16.60;94.40;;;;;;5049853;28;20449;-77
2023/04/05 11:19:42;;;;;;;1999.90;999.90;;;16.50;95.70;;;;;;5050214;28;20087;-77
2023/04/05 11:22:08;;;;;;;1999.90;999.90;;;16.50;94.70;;;;;;5053629;28;20024;-77
2023/04/05 11:25:01;;;;;;;1999.90;999.90;;;16.50;93.40;;;;;;5052114;28;20447;-73
2023/04/05 11:27:36;;;;;;;1999.90;999.90;;;16.60;95.00;;;;;;5039475;28;20026;-78
2023/04/05 11:30:04;;;;;;;1999.90;999.90;;;16.60;93.20;;;;;;5045788;28;20094;-73
2023/04/05 11:32:41;;;;;;;1999.90;999.90;;;16.90;94.40;;;;;;5051443;28;20554;-78
2023/04/05 11:35:11;;;;;;;1999.90;999.90;;;16.90;93.10;;;;;;5039815;28;20035;-73
2023/04/05 11:37:55;;;;;;;1999.90;999.90;;;16.80;93.00;;;;;;5056497;28;20559;-76
2023/04/05 11:40:25;;;;;;;1999.90;999.90;;;16.90;94.10;;;;;;5051365;28;20060;-76
2023/04/05 11:43:00;;;;;;;1999.90;999.90;;;16.50;93.40;;;;;;5049649;28;20032;-73
2023/04/05 11:45:28;;;;;;;1999.90;999.90;;;16.80;94.20;;;;;;5050348;28;20100;-77
2023/04/05 11:47:54;;;;;;;1999.90;999.90;;;17.40;95.80;;;;;;5057868;28;20416;-77
2023/04/05 11:50:20;;;;;;;1999.90;999.90;;;17.30;92.50;;;;;;5049801;28;20407;-73
2023/04/05 11:53:11;;;;;;;1999.90;999.90;;;17.20;94.10;;;;;;5044651;28;20112;-78
2023/04/05 11:55:38;;;;;;;1999.90;999.90;;;16.80;92.80;;;;;;5048494;28;20029;-78
2023/04/05 11:58:24;;;;;;;1999.90;999.90;;;16.60;91.10;;;;;;5063758;28;20017;-73
2023/04/05 12:00:57;;;;;;;1999.90;999.90;;;16.80;95.30;;;;;;5050211;28;20108;-78
2023/04/05 12:03:23;;;;;;;1999.90;999.90;;;16.80;96.00;;;;;;5045116;28;20536;-76
2023/04/05 12:05:50;;;;;;;1999.90;999.90;;;16.90;94.00;;;;;;5049069;28;20112;-74
2023/04/05 12:08:19;;;;;;;1999.90;999.90;;;17.10;94.90;;;;;;5043196;28;20021;-74
2023/04/05 12:11:10;;;;;;;1999.90;999.90;;;16.90;93.30;;;;;;5048991;28;20450;-73
2023/04/05 12:13:36;;;;;;;1999.90;999.90;;;17.20;96.00;;;;;;5040078;28;20036;-78